createdAt,value
2018-11-06T00:00:50.294Z,9.30
2018-11-06T00:03:24.432Z,9.20
2018-11-06T00:05:53.345Z,9.20
2018-11-06T00:08:22.053Z,9.20
2018-11-06T00:10:50.483Z,9.10
2018-11-06T00:13:19.116Z,9.10
2018-11-06T00:15:47.556Z,9.10
2018-11-06T00:18:15.977Z,9.10
2018-11-06T00:20:44.812Z,9.00
2018-11-06T00:23:13.268Z,9.00
2018-11-06T00:25:41.708Z,9.00
2018-11-06T00:28:10.176Z,8.90
2018-11-06T00:30:38.593Z,8.60
2018-11-06T00:33:07.013Z,8.90
2018-11-06T00:35:35.658Z,8.80
2018-11-06T00:38:04.104Z,8.80
2018-11-06T00:40:32.497Z,8.80
2018-11-06T00:43:00.956Z,8.80
2018-11-06T00:45:29.480Z,8.80
2018-11-06T00:47:58.017Z,8.80
2018-11-06T00:50:26.701Z,8.70
2018-11-06T00:52:55.201Z,8.70
2018-11-06T00:55:23.671Z,8.70
2018-11-06T00:57:52.145Z,8.70
2018-11-06T01:00:20.601Z,8.70
2018-11-06T01:02:49.368Z,8.70
2018-11-06T01:05:18.261Z,8.60
2018-11-06T01:07:47.872Z,8.60
2018-11-06T01:10:16.451Z,8.60
2018-11-06T01:12:44.916Z,8.50
2018-11-06T01:15:14.400Z,8.50
2018-11-06T01:17:43.845Z,8.50
2018-11-06T01:20:14.357Z,8.50
2018-11-06T01:22:42.882Z,8.40
2018-11-06T01:25:11.909Z,8.40
2018-11-06T01:27:40.880Z,8.40
2018-11-06T01:30:12.135Z,8.40
2018-11-06T01:32:40.778Z,8.30
2018-11-06T01:35:10.365Z,8.30
2018-11-06T01:37:38.828Z,8.30
2018-11-06T01:40:09.005Z,8.30
2018-11-06T01:42:37.453Z,8.30
2018-11-06T01:45:07.813Z,8.30
2018-11-06T01:47:36.497Z,8.30
2018-11-06T01:50:05.487Z,8.30
2018-11-06T01:52:33.935Z,8.30
2018-11-06T01:55:02.388Z,8.30
2018-11-06T01:57:30.877Z,8.30
2018-11-06T01:59:59.357Z,8.20
2018-11-06T02:02:28.109Z,8.20
2018-11-06T02:04:56.668Z,8.20
2018-11-06T02:07:25.130Z,8.20
2018-11-06T02:09:53.605Z,8.20
2018-11-06T02:12:22.057Z,8.30
2018-11-06T02:14:50.520Z,8.30
2018-11-06T02:17:18.955Z,8.30
2018-11-06T02:19:47.649Z,8.30
2018-11-06T02:22:16.085Z,8.30
2018-11-06T02:24:44.953Z,8.40
2018-11-06T02:27:13.395Z,8.30
2018-11-06T02:29:41.868Z,8.30
2018-11-06T02:32:10.641Z,8.30
2018-11-06T02:34:39.170Z,8.30
2018-11-06T02:37:07.646Z,8.30
2018-11-06T02:39:36.415Z,8.30
2018-11-06T02:42:05.203Z,8.20
2018-11-06T02:44:33.667Z,8.20
2018-11-06T02:47:02.408Z,8.20
2018-11-06T02:49:30.826Z,8.20
2018-11-06T02:51:59.260Z,8.20
2018-11-06T02:54:27.969Z,8.20
2018-11-06T02:56:56.396Z,8.30
2018-11-06T02:59:25.000Z,8.00
2018-11-06T03:01:53.911Z,8.20
2018-11-06T03:04:22.353Z,8.20
2018-11-06T03:06:50.792Z,8.20
2018-11-06T03:09:19.329Z,8.20
2018-11-06T03:11:47.741Z,8.20
2018-11-06T03:14:16.252Z,8.20
2018-11-06T03:16:44.984Z,8.20
2018-11-06T03:19:13.468Z,8.20
2018-11-06T03:21:41.945Z,8.10
2018-11-06T03:24:10.661Z,8.00
2018-11-06T03:26:39.128Z,8.00
2018-11-06T03:29:07.529Z,8.00
2018-11-06T03:31:36.288Z,8.00
2018-11-06T03:34:04.734Z,8.00
2018-11-06T03:36:33.142Z,8.00
2018-11-06T03:39:01.590Z,8.00
2018-11-06T03:41:30.029Z,7.90
2018-11-06T03:43:58.449Z,7.90
2018-11-06T03:46:26.937Z,7.90
2018-11-06T03:48:55.419Z,7.90
2018-11-06T03:51:24.614Z,8.00
2018-11-06T03:53:53.228Z,8.10
2018-11-06T03:56:21.646Z,8.10
2018-11-06T03:58:50.130Z,8.10
2018-11-06T04:01:18.756Z,8.10
2018-11-06T04:03:47.228Z,8.10
2018-11-06T04:06:15.799Z,8.10
2018-11-06T04:08:44.520Z,8.20
2018-11-06T04:11:12.917Z,8.20
2018-11-06T04:13:41.409Z,8.30
2018-11-06T04:16:10.166Z,8.30
2018-11-06T04:18:38.589Z,8.50
2018-11-06T04:21:07.057Z,8.30
2018-11-06T04:23:35.786Z,8.30
2018-11-06T04:26:04.253Z,8.40
2018-11-06T04:28:32.668Z,8.30
2018-11-06T04:31:01.369Z,8.30
2018-11-06T04:33:29.817Z,8.30
2018-11-06T04:35:58.279Z,8.20
2018-11-06T04:38:26.954Z,8.20
2018-11-06T04:40:55.592Z,8.20
2018-11-06T04:43:24.021Z,8.20
2018-11-06T04:45:52.811Z,8.20
2018-11-06T04:48:21.265Z,8.20
2018-11-06T04:50:49.689Z,8.20
2018-11-06T04:53:18.172Z,8.20
2018-11-06T04:55:46.984Z,8.20
2018-11-06T04:58:15.467Z,8.10
2018-11-06T05:00:43.956Z,8.10
2018-11-06T05:03:12.464Z,8.10
2018-11-06T05:05:40.913Z,8.10
2018-11-06T05:08:09.608Z,8.10
2018-11-06T05:10:38.089Z,8.10
2018-11-06T05:13:06.546Z,9.50
2018-11-06T05:15:35.237Z,8.10
2018-11-06T05:18:03.728Z,8.10
2018-11-06T05:20:32.385Z,8.10
2018-11-06T05:23:01.037Z,8.10
2018-11-06T05:25:29.501Z,8.10
2018-11-06T05:27:59.456Z,8.00
2018-11-06T05:30:28.546Z,8.00
2018-11-06T05:32:57.042Z,8.10
2018-11-06T05:35:26.394Z,8.00
2018-11-06T05:37:55.019Z,8.00
2018-11-06T05:40:34.623Z,8.10
2018-11-06T05:43:03.505Z,8.20
2018-11-06T05:45:31.990Z,8.20
2018-11-06T05:48:00.458Z,8.10
2018-11-06T05:50:29.403Z,8.10
2018-11-06T05:52:58.010Z,8.20
2018-11-06T05:55:26.439Z,8.20
2018-11-06T05:57:54.911Z,8.20
2018-11-06T06:00:23.439Z,8.20
2018-11-06T06:02:51.924Z,8.10
2018-11-06T06:05:20.622Z,8.10
2018-11-06T06:07:49.061Z,8.20
2018-11-06T06:10:17.605Z,8.20
2018-11-06T06:12:46.071Z,8.10
2018-11-06T06:15:14.563Z,8.10
2018-11-06T06:17:42.976Z,8.10
2018-11-06T06:20:11.446Z,8.20
2018-11-06T06:22:39.941Z,8.10
2018-11-06T06:25:08.687Z,8.20
2018-11-06T06:27:37.805Z,8.20
2018-11-06T06:30:08.897Z,8.20
2018-11-06T06:32:37.581Z,8.20
2018-11-06T06:35:06.145Z,8.30
2018-11-06T06:37:34.488Z,8.30
2018-11-06T06:40:03.010Z,8.30
2018-11-06T06:42:31.461Z,8.40
2018-11-06T06:44:59.907Z,8.40
2018-11-06T06:47:28.365Z,8.40
2018-11-06T06:49:56.845Z,8.40
2018-11-06T06:52:25.334Z,8.40
2018-11-06T06:54:53.853Z,8.40
2018-11-06T06:57:22.383Z,8.40
2018-11-06T06:59:50.805Z,8.40
2018-11-06T07:02:19.454Z,8.40
2018-11-06T07:04:47.883Z,8.40
2018-11-06T07:07:16.400Z,8.40
2018-11-06T07:09:45.154Z,8.40
2018-11-06T07:12:13.595Z,8.40
2018-11-06T07:14:42.053Z,8.50
2018-11-06T07:17:10.580Z,8.50
2018-11-06T07:19:39.012Z,8.50
2018-11-06T07:22:07.487Z,8.50
2018-11-06T07:24:35.972Z,8.50
2018-11-06T07:27:04.465Z,8.50
2018-11-06T07:29:32.902Z,8.50
2018-11-06T07:32:01.533Z,8.50
2018-11-06T07:34:29.995Z,8.40
2018-11-06T07:36:59.020Z,8.40
2018-11-06T07:39:27.694Z,8.40
2018-11-06T07:41:56.155Z,8.40
2018-11-06T07:44:24.596Z,8.50
2018-11-06T07:46:53.257Z,8.50
2018-11-06T07:49:21.713Z,8.50
2018-11-06T07:51:50.162Z,8.40
2018-11-06T07:54:18.897Z,8.40
2018-11-06T07:56:47.345Z,8.40
2018-11-06T07:59:15.825Z,8.40
2018-11-06T08:01:44.733Z,8.50
2018-11-06T08:04:13.206Z,8.50
2018-11-06T08:06:41.675Z,8.50
2018-11-06T08:09:11.204Z,8.60
2018-11-06T08:11:40.208Z,8.70
2018-11-06T08:14:08.736Z,8.60
2018-11-06T08:16:37.343Z,8.60
2018-11-06T08:19:05.805Z,8.60
2018-11-06T08:21:34.232Z,8.60
2018-11-06T08:24:02.841Z,8.60
2018-11-06T08:26:31.173Z,8.60
2018-11-06T08:28:59.725Z,8.60
2018-11-06T08:31:28.853Z,8.70
2018-11-06T08:33:56.892Z,8.60
2018-11-06T08:36:25.353Z,8.60
2018-11-06T08:38:53.868Z,8.60
2018-11-06T08:41:22.351Z,8.60
2018-11-06T08:43:50.852Z,8.50
2018-11-06T08:46:19.345Z,8.40
2018-11-06T08:48:47.779Z,8.40
2018-11-06T08:51:16.201Z,8.40
2018-11-06T08:53:44.681Z,8.50
2018-11-06T08:56:13.636Z,8.50
2018-11-06T08:58:42.185Z,8.50
2018-11-06T09:01:10.952Z,8.60
2018-11-06T09:03:39.434Z,8.70
2018-11-06T09:06:07.897Z,8.80
2018-11-06T09:08:36.696Z,8.80
2018-11-06T09:11:05.257Z,8.90
2018-11-06T09:13:33.717Z,9.00
2018-11-06T09:16:02.392Z,9.00
2018-11-06T09:18:30.939Z,9.00
2018-11-06T09:21:00.351Z,9.10
2018-11-06T09:23:29.046Z,9.10
2018-11-06T09:25:57.518Z,9.10
2018-11-06T09:28:25.937Z,9.10
2018-11-06T09:30:54.704Z,9.20
2018-11-06T09:33:23.180Z,9.40
2018-11-06T09:35:51.688Z,9.50
2018-11-06T09:38:20.188Z,9.50
2018-11-06T09:40:48.656Z,9.60
2018-11-06T09:43:17.125Z,9.70
2018-11-06T09:45:45.671Z,9.90
2018-11-06T09:48:14.205Z,10.00
2018-11-06T09:50:42.664Z,10.10
2018-11-06T09:53:11.301Z,10.30
2018-11-06T09:55:39.796Z,10.40
2018-11-06T09:58:14.907Z,10.60
2018-11-06T10:00:43.372Z,10.70
2018-11-06T10:03:11.852Z,11.00
2018-11-06T10:05:40.341Z,11.20
2018-11-06T10:08:08.789Z,11.30
2018-11-06T10:10:37.325Z,11.40
2018-11-06T10:13:06.058Z,11.60
2018-11-06T10:15:34.633Z,11.60
2018-11-06T10:18:03.074Z,11.70
2018-11-06T10:20:31.693Z,11.80
2018-11-06T10:23:00.136Z,11.70
2018-11-06T10:25:28.609Z,11.70
2018-11-06T10:27:57.279Z,11.70
2018-11-06T10:30:25.730Z,11.70
2018-11-06T10:32:54.176Z,11.70
2018-11-06T10:35:22.912Z,11.60
2018-11-06T10:37:51.338Z,11.50
2018-11-06T10:40:21.142Z,11.60
2018-11-06T10:42:49.897Z,11.60
2018-11-06T10:45:18.950Z,11.70
2018-11-06T10:47:47.759Z,11.80
2018-11-06T10:50:16.902Z,11.80
2018-11-06T10:52:45.948Z,12.00
2018-11-06T10:55:14.383Z,12.10
2018-11-06T10:57:43.075Z,12.20
2018-11-06T11:00:17.913Z,12.30
2018-11-06T11:02:51.643Z,12.30
2018-11-06T11:05:21.201Z,12.40
2018-11-06T11:07:49.656Z,12.40
2018-11-06T11:10:18.145Z,12.50
2018-11-06T11:12:46.641Z,12.30
2018-11-06T11:15:15.089Z,12.30
2018-11-06T11:17:43.692Z,12.40
2018-11-06T11:20:13.516Z,12.50
2018-11-06T11:22:42.289Z,12.50
2018-11-06T11:25:12.669Z,12.50
2018-11-06T11:27:41.548Z,12.60
2018-11-06T11:30:11.747Z,12.70
2018-11-06T11:32:41.355Z,12.80
2018-11-06T11:35:09.889Z,12.90
2018-11-06T11:37:38.358Z,12.90
2018-11-06T11:40:08.257Z,12.90
2018-11-06T11:42:36.838Z,13.00
2018-11-06T11:45:06.433Z,13.10
2018-11-06T11:47:35.116Z,13.20
2018-11-06T11:50:03.716Z,13.20
2018-11-06T11:52:32.394Z,13.20
2018-11-06T11:55:01.030Z,13.20
2018-11-06T11:57:29.472Z,13.30
2018-11-06T11:59:57.933Z,13.30
2018-11-06T12:02:26.590Z,13.30
2018-11-06T12:04:55.056Z,13.30
2018-11-06T12:07:23.495Z,13.30
2018-11-06T12:09:52.111Z,13.30
2018-11-06T12:12:20.555Z,13.40
2018-11-06T12:14:48.997Z,13.40
2018-11-06T12:17:17.708Z,13.30
2018-11-06T12:19:46.176Z,13.20
2018-11-06T12:22:14.612Z,13.10
2018-11-06T12:24:43.463Z,13.10
2018-11-06T12:27:11.782Z,13.00
2018-11-06T12:29:40.313Z,12.90
2018-11-06T12:32:08.902Z,12.90
2018-11-06T12:34:37.370Z,12.80
2018-11-06T12:37:05.928Z,12.80
2018-11-06T12:39:34.601Z,12.90
2018-11-06T12:42:03.132Z,12.90
2018-11-06T12:44:31.576Z,12.90
2018-11-06T12:47:00.301Z,13.00
2018-11-06T12:49:28.718Z,13.10
2018-11-06T12:51:57.158Z,13.20
2018-11-06T12:54:25.873Z,13.30
2018-11-06T12:56:54.289Z,13.30
2018-11-06T12:59:22.728Z,13.30
2018-11-06T13:01:51.296Z,13.40
2018-11-06T13:04:19.736Z,13.40
2018-11-06T13:06:48.215Z,13.40
2018-11-06T13:09:17.724Z,13.40
2018-11-06T13:11:46.146Z,13.40
2018-11-06T13:14:14.617Z,13.40
2018-11-06T13:16:43.320Z,13.30
2018-11-06T13:19:11.842Z,13.20
2018-11-06T13:21:40.352Z,13.10
2018-11-06T13:24:09.045Z,13.10
2018-11-06T13:26:37.601Z,13.10
2018-11-06T13:29:06.562Z,13.10
2018-11-06T13:31:35.049Z,13.10
2018-11-06T13:34:03.467Z,13.00
2018-11-06T13:36:31.876Z,13.00
2018-11-06T13:39:00.406Z,13.00
2018-11-06T13:41:28.837Z,13.00
2018-11-06T13:43:57.520Z,13.00
2018-11-06T13:46:26.006Z,13.00
2018-11-06T13:48:54.416Z,13.00
2018-11-06T13:51:22.864Z,13.00
2018-11-06T13:53:51.345Z,13.00
2018-11-06T13:56:19.758Z,13.00
2018-11-06T13:58:48.268Z,13.00
2018-11-06T14:01:16.969Z,12.90
2018-11-06T14:03:45.396Z,12.90
2018-11-06T14:06:13.845Z,13.00
2018-11-06T14:08:42.349Z,12.90
2018-11-06T14:11:10.816Z,12.90
2018-11-06T14:13:39.256Z,12.90
2018-11-06T14:16:07.897Z,12.80
2018-11-06T14:18:36.853Z,12.90
2018-11-06T14:21:05.527Z,12.90
2018-11-06T14:23:34.017Z,12.90
2018-11-06T14:26:02.456Z,12.80
2018-11-06T14:28:30.900Z,12.90
2018-11-06T14:30:59.546Z,12.80
2018-11-06T14:33:27.988Z,12.80
2018-11-06T14:35:56.487Z,12.80
2018-11-06T14:38:25.114Z,12.80
2018-11-06T14:40:53.541Z,12.90
2018-11-06T14:43:22.014Z,12.90
2018-11-06T14:45:50.768Z,12.80
2018-11-06T14:48:19.323Z,12.80
2018-11-06T14:50:47.692Z,12.80
2018-11-06T14:53:16.423Z,12.80
2018-11-06T14:55:44.932Z,12.80
2018-11-06T14:58:13.457Z,12.80
2018-11-06T15:00:42.121Z,12.70
2018-11-06T15:03:10.586Z,12.70
2018-11-06T15:05:39.133Z,12.70
2018-11-06T15:08:07.560Z,12.70
2018-11-06T15:10:35.984Z,12.80
2018-11-06T15:13:04.690Z,12.70
2018-11-06T15:15:33.199Z,12.70
2018-11-06T15:18:01.647Z,12.70
2018-11-06T15:20:30.076Z,12.70
2018-11-06T15:22:58.968Z,12.70
2018-11-06T15:25:27.468Z,12.70
2018-11-06T15:27:55.906Z,12.50
2018-11-06T15:30:24.642Z,12.70
2018-11-06T15:32:53.088Z,12.70
2018-11-06T15:35:21.857Z,12.70
2018-11-06T15:37:50.577Z,12.70
2018-11-06T15:40:20.022Z,12.70
2018-11-06T15:42:48.519Z,12.60
2018-11-06T15:45:18.339Z,12.90
2018-11-06T15:47:48.324Z,12.70
2018-11-06T15:50:18.864Z,12.60
2018-11-06T15:52:48.628Z,12.60
2018-11-06T15:55:17.132Z,12.60
2018-11-06T15:57:46.082Z,12.50
2018-11-06T16:00:16.966Z,12.50
2018-11-06T16:02:47.006Z,12.50
2018-11-06T16:05:15.777Z,12.40
2018-11-06T16:07:44.374Z,12.40
2018-11-06T16:10:16.096Z,12.30
2018-11-06T16:12:45.036Z,12.30
2018-11-06T16:15:13.799Z,12.20
2018-11-06T16:17:42.565Z,12.30
2018-11-06T16:20:12.757Z,12.20
2018-11-06T16:22:41.507Z,12.20
2018-11-06T16:25:11.630Z,12.10
2018-11-06T16:27:40.773Z,12.10
2018-11-06T16:30:12.593Z,12.10
2018-11-06T16:32:41.276Z,12.00
2018-11-06T16:35:12.113Z,12.00
2018-11-06T16:37:41.236Z,12.00
2018-11-06T16:40:10.124Z,12.00
2018-11-06T16:42:39.113Z,12.00
2018-11-06T16:45:12.565Z,11.90
2018-11-06T16:47:41.787Z,11.90
2018-11-06T16:50:11.486Z,11.90
2018-11-06T16:52:40.410Z,11.90
2018-11-06T16:55:09.785Z,11.90
2018-11-06T16:57:39.432Z,12.00
2018-11-06T17:00:10.625Z,11.90
2018-11-06T17:02:39.680Z,11.80
2018-11-06T17:05:09.241Z,11.80
2018-11-06T17:07:38.693Z,11.80
2018-11-06T17:10:09.284Z,11.80
2018-11-06T17:12:39.203Z,11.80
2018-11-06T17:15:10.326Z,11.80
2018-11-06T17:17:38.809Z,11.80
2018-11-06T17:20:09.221Z,11.80
2018-11-06T17:22:38.632Z,11.80
2018-11-06T17:25:08.275Z,11.80
2018-11-06T17:27:36.935Z,11.80
2018-11-06T17:30:06.609Z,11.80
2018-11-06T17:32:35.257Z,11.70
2018-11-06T17:35:03.749Z,11.70
2018-11-06T17:37:32.184Z,11.80
2018-11-06T17:40:00.626Z,11.70
2018-11-06T17:42:29.100Z,11.70
2018-11-06T17:44:57.560Z,11.60
2018-11-06T17:47:26.062Z,11.60
2018-11-06T17:49:54.519Z,11.60
2018-11-06T17:52:23.025Z,11.60
2018-11-06T17:54:51.530Z,11.60
2018-11-06T17:57:19.932Z,11.60
2018-11-06T17:59:48.453Z,11.60
2018-11-06T18:02:16.946Z,11.50
2018-11-06T18:04:45.533Z,11.50
2018-11-06T18:07:14.616Z,11.60
2018-11-06T18:09:43.088Z,11.50
2018-11-06T18:12:11.678Z,11.50
2018-11-06T18:14:40.461Z,11.50
2018-11-06T18:17:09.948Z,11.50
2018-11-06T18:19:38.515Z,11.50
2018-11-06T18:22:07.096Z,11.50
2018-11-06T18:24:38.242Z,11.40
2018-11-06T18:27:06.774Z,11.40
2018-11-06T18:29:35.237Z,11.40
2018-11-06T18:32:03.929Z,11.40
2018-11-06T18:34:32.823Z,11.40
2018-11-06T18:37:01.358Z,11.40
2018-11-06T18:39:29.965Z,11.40
2018-11-06T18:41:58.908Z,11.40
2018-11-06T18:44:27.560Z,11.40
2018-11-06T18:46:55.985Z,11.40
2018-11-06T18:49:24.769Z,11.40
2018-11-06T18:51:53.390Z,11.40
2018-11-06T18:54:22.290Z,11.40
2018-11-06T18:56:51.110Z,11.40
2018-11-06T18:59:19.817Z,11.40
2018-11-06T19:01:48.406Z,11.50
2018-11-06T19:04:17.234Z,11.40
2018-11-06T19:06:45.670Z,11.50
2018-11-06T19:09:14.316Z,11.40
2018-11-06T19:11:43.045Z,11.50
2018-11-06T19:14:11.899Z,11.50
2018-11-06T19:16:41.193Z,11.50
2018-11-06T19:19:10.242Z,11.50
2018-11-06T19:21:38.809Z,11.40
2018-11-06T19:24:07.554Z,11.40
2018-11-06T19:26:36.332Z,11.40
2018-11-06T19:29:04.997Z,11.30
2018-11-06T19:31:33.494Z,11.20
2018-11-06T19:34:03.465Z,11.20
2018-11-06T19:36:32.264Z,11.20
2018-11-06T19:39:01.139Z,11.30
2018-11-06T19:41:30.131Z,11.10
2018-11-06T19:43:58.713Z,11.20
2018-11-06T19:46:27.229Z,11.20
2018-11-06T19:48:55.777Z,11.20
2018-11-06T19:51:24.268Z,11.20
2018-11-06T19:53:52.783Z,11.20
2018-11-06T19:56:21.823Z,11.20
2018-11-06T19:58:50.653Z,11.20
2018-11-06T20:01:19.626Z,11.30
2018-11-06T20:03:48.825Z,11.30
2018-11-06T20:06:17.897Z,11.30
2018-11-06T20:08:46.377Z,11.40
2018-11-06T20:11:15.356Z,11.40
2018-11-06T20:13:43.990Z,11.40
2018-11-06T20:16:12.941Z,11.40
2018-11-06T20:18:41.693Z,11.40
2018-11-06T20:21:10.244Z,11.50
2018-11-06T20:23:38.732Z,11.40
2018-11-06T20:26:07.388Z,11.50
2018-11-06T20:28:35.956Z,11.50
2018-11-06T20:31:04.753Z,11.50
2018-11-06T20:33:33.470Z,11.50
2018-11-06T20:36:02.005Z,11.50
2018-11-06T20:38:30.525Z,11.50
2018-11-06T20:40:59.260Z,11.50
2018-11-06T20:43:27.717Z,11.60
2018-11-06T20:45:56.193Z,11.60
2018-11-06T20:48:24.921Z,11.60
2018-11-06T20:50:53.348Z,11.60
2018-11-06T20:53:21.915Z,11.60
2018-11-06T20:55:50.457Z,11.50
2018-11-06T20:58:18.985Z,11.50
2018-11-06T21:00:47.516Z,11.50
2018-11-06T21:03:16.012Z,11.50
2018-11-06T21:05:44.495Z,11.40
2018-11-06T21:08:12.988Z,11.40
2018-11-06T21:10:41.942Z,11.40
2018-11-06T21:13:10.441Z,11.40
2018-11-06T21:15:38.920Z,11.40
2018-11-06T21:18:07.497Z,11.40
2018-11-06T21:20:35.798Z,11.40
2018-11-06T21:23:04.236Z,11.30
2018-11-06T21:25:32.919Z,11.30
2018-11-06T21:28:01.249Z,11.30
2018-11-06T21:30:29.695Z,11.20
2018-11-06T21:32:58.382Z,11.20
2018-11-06T21:35:26.829Z,11.20
2018-11-06T21:37:55.296Z,11.10
2018-11-06T21:40:23.828Z,11.10
2018-11-06T21:42:52.245Z,11.10
2018-11-06T21:45:20.732Z,11.10
2018-11-06T21:47:49.973Z,11.10
2018-11-06T21:50:18.720Z,11.10
2018-11-06T21:52:47.201Z,11.10
2018-11-06T21:55:17.005Z,11.00
2018-11-06T21:57:45.457Z,11.00
2018-11-06T22:00:17.500Z,10.90
2018-11-06T22:02:45.837Z,10.90
2018-11-06T22:05:15.673Z,10.90
2018-11-06T22:07:44.338Z,10.80
2018-11-06T22:10:13.976Z,10.80
2018-11-06T22:12:43.278Z,10.80
2018-11-06T22:15:13.386Z,10.70
2018-11-06T22:17:42.273Z,10.70
2018-11-06T22:20:12.678Z,10.70
2018-11-06T22:22:41.780Z,10.60
2018-11-06T22:25:10.257Z,10.60
2018-11-06T22:27:39.004Z,10.60
2018-11-06T22:30:09.381Z,10.60
2018-11-06T22:32:37.812Z,10.60
2018-11-06T22:35:07.500Z,10.60
2018-11-06T22:37:35.959Z,10.60
2018-11-06T22:40:04.449Z,10.60
2018-11-06T22:42:33.110Z,10.60
2018-11-06T22:45:01.557Z,10.60
2018-11-06T22:47:30.013Z,10.60
2018-11-06T22:49:58.622Z,10.50
2018-11-06T22:52:27.069Z,10.50
2018-11-06T22:54:55.499Z,10.50
2018-11-06T22:57:24.166Z,10.50
2018-11-06T22:59:52.604Z,10.50
2018-11-06T23:02:21.017Z,10.50
2018-11-06T23:04:49.961Z,10.50
2018-11-06T23:07:23.636Z,10.40
2018-11-06T23:09:52.085Z,10.40
2018-11-06T23:12:20.550Z,10.40
2018-11-06T23:14:48.993Z,10.40
2018-11-06T23:17:17.484Z,10.40
2018-11-06T23:19:45.884Z,10.40
2018-11-06T23:22:14.322Z,10.40
2018-11-06T23:24:43.643Z,10.40
2018-11-06T23:27:12.090Z,10.40
2018-11-06T23:29:40.549Z,10.40
2018-11-06T23:32:09.268Z,10.40
2018-11-06T23:34:37.735Z,10.40
2018-11-06T23:37:06.189Z,10.40
2018-11-06T23:39:35.028Z,10.40
2018-11-06T23:42:03.469Z,10.30
2018-11-06T23:44:31.918Z,10.30
2018-11-06T23:47:00.528Z,10.30
2018-11-06T23:49:29.020Z,10.30
2018-11-06T23:51:57.455Z,10.30
2018-11-06T23:54:26.084Z,10.30
2018-11-06T23:57:00.939Z,10.20
2018-11-06T23:59:29.594Z,10.20
